Time;durP1;ratioP1;P1;durP2;ratioP2;P2;SDS_P1;SDS_P2;PMS_P1;PMS_P2;Temp;Humidity;BMP_temperature;BMP_pressure;BME280_temperature;BME280_humidity;BME280_pressure;Samples;Min_cycle;Max_cycle;Signal;HPM_P1;HPM_P2
2022/08/13 00:01:40;;;;;;;3.70;2.40;;;24.00;99.90;;;;;;5021150;28;20212;-51
2022/08/13 00:04:13;;;;;;;3.77;2.30;;;24.00;99.90;;;;;;5021876;28;20656;-51
2022/08/13 00:07:04;;;;;;;6.00;2.30;;;24.00;99.90;;;;;;5021560;28;20291;-50
2022/08/13 00:09:32;;;;;;;4.13;2.37;;;24.00;99.90;;;;;;5021563;28;20212;-52
2022/08/13 00:15:14;;;;;;;3.60;2.47;;;23.90;99.90;;;;;;5021513;28;20254;-51
2022/08/13 00:17:45;;;;;;;3.77;2.30;;;23.80;99.90;;;;;;5020946;28;20286;-52
2022/08/13 00:20:38;;;;;;;4.47;2.50;;;23.80;99.90;;;;;;5021060;28;20228;-51
2022/08/13 00:23:08;;;;;;;3.17;2.63;;;23.70;99.90;;;;;;5020522;28;20664;-51
2022/08/13 00:25:55;;;;;;;3.63;2.70;;;23.70;99.90;;;;;;5020815;28;20653;-50
2022/08/13 00:28:28;;;;;;;5.13;2.60;;;23.70;99.90;;;;;;5016677;28;20210;-51
2022/08/13 00:30:58;;;;;;;6.60;2.70;;;23.60;99.90;;;;;;5020835;28;20209;-52
2022/08/13 00:33:26;;;;;;;3.90;2.90;;;23.60;99.90;;;;;;5021441;28;20200;-52
2022/08/13 00:36:13;;;;;;;6.03;2.92;;;23.60;99.90;;;;;;5020666;28;20232;-51
2022/08/13 00:38:52;;;;;;;5.68;2.88;;;23.60;99.90;;;;;;5020736;28;20201;-50
2022/08/13 00:41:38;;;;;;;6.88;3.25;;;23.40;99.90;;;;;;5020397;28;20207;-50
2022/08/13 00:44:26;;;;;;;4.33;3.33;;;23.40;99.90;;;;;;5020241;28;20696;-51
2022/08/13 00:48:41;;;;;;;7.13;4.07;;;23.40;99.90;;;;;;5020652;28;20259;-52
2022/08/13 00:49:47;;;;;;;7.50;4.00;;;23.30;99.90;;;;;;5021677;28;20707;-52
2022/08/13 00:52:31;;;;;;;7.60;3.93;;;23.40;99.90;;;;;;5020104;28;20664;-51
2022/08/13 00:55:01;;;;;;;6.23;4.27;;;23.20;99.90;;;;;;5020542;28;20815;-52
2022/08/13 00:57:29;;;;;;;6.77;4.23;;;23.30;99.90;;;;;;5019376;28;20254;-50
2022/08/13 00:59:56;;;;;;;6.53;4.80;;;23.20;99.90;;;;;;5017700;28;20218;-51
2022/08/13 01:02:24;;;;;;;5.83;4.50;;;23.10;99.90;;;;;;5020829;28;20266;-50
2022/08/13 01:05:00;;;;;;;7.30;4.93;;;23.10;99.90;;;;;;5020974;28;20852;-52
2022/08/13 01:07:30;;;;;;;7.37;5.50;;;23.20;99.90;;;;;;5020065;28;20208;-51
2022/08/13 01:10:17;;;;;;;9.03;4.83;;;23.10;99.90;;;;;;5020349;28;20209;-51
2022/08/13 01:12:50;;;;;;;6.37;4.83;;;23.10;99.90;;;;;;5016508;28;20211;-51
2022/08/13 01:15:19;;;;;;;9.30;5.90;;;23.10;99.90;;;;;;5019332;28;20220;-51
2022/08/13 01:17:47;;;;;;;8.30;5.50;;;23.10;99.90;;;;;;5020355;28;20219;-52
2022/08/13 01:20:20;;;;;;;6.10;5.00;;;23.00;99.90;;;;;;5020285;28;20688;-51
2022/08/13 01:23:02;;;;;;;11.20;5.23;;;23.10;99.90;;;;;;5020243;28;20263;-50
2022/08/13 01:25:31;;;;;;;9.07;5.53;;;23.00;99.90;;;;;;5019018;28;20680;-52
2022/08/13 01:28:19;;;;;;;6.88;4.88;;;23.00;99.90;;;;;;5019457;28;20627;-48
2022/08/13 01:30:49;;;;;;;8.30;5.13;;;22.90;99.90;;;;;;5016466;28;20216;-50
2022/08/13 01:33:17;;;;;;;5.70;4.80;;;22.90;99.90;;;;;;5019621;28;20238;-50
2022/08/13 01:35:46;;;;;;;6.57;4.97;;;22.90;99.90;;;;;;5019402;28;20258;-50
2022/08/13 01:38:16;;;;;;;8.63;4.63;;;22.90;99.90;;;;;;5014941;28;20262;-50
2022/08/13 01:40:48;;;;;;;6.83;4.73;;;22.90;99.90;;;;;;5019112;28;20225;-52
2022/08/13 01:43:19;;;;;;;7.27;4.97;;;22.90;99.90;;;;;;5018938;28;20203;-50
2022/08/13 01:45:51;;;;;;;9.43;4.97;;;22.80;99.90;;;;;;5020806;28;20291;-51
2022/08/13 01:51:32;;;;;;;6.97;4.73;;;22.80;99.90;;;;;;5020779;28;20205;-51
2022/08/13 01:54:11;;;;;;;6.93;5.17;;;22.90;99.90;;;;;;5019343;28;20985;-50
2022/08/13 01:57:04;;;;;;;7.00;4.43;;;22.80;99.90;;;;;;5020166;28;20580;-51
2022/08/13 01:59:34;;;;;;;8.93;4.80;;;22.80;99.90;;;;;;5015105;28;20220;-51
2022/08/13 02:02:24;;;;;;;8.97;4.53;;;22.70;99.90;;;;;;5018680;28;20233;-50
2022/08/13 02:05:12;;;;;;;6.97;5.17;;;22.70;99.90;;;;;;5019281;28;20259;-52
2022/08/13 02:08:00;;;;;;;8.63;5.00;;;22.70;99.90;;;;;;5019160;28;20236;-50
2022/08/13 02:10:35;;;;;;;8.83;4.70;;;22.60;99.90;;;;;;5020143;28;20250;-52
2022/08/13 02:13:06;;;;;;;8.83;5.23;;;22.60;99.90;;;;;;5019070;28;20201;-51
2022/08/13 02:15:35;;;;;;;6.17;4.40;;;22.60;99.90;;;;;;5003334;28;20256;-51
2022/08/13 02:18:17;;;;;;;7.23;4.60;;;22.60;99.90;;;;;;5018508;28;20204;-52
2022/08/13 02:20:54;;;;;;;6.47;4.43;;;22.70;99.90;;;;;;5016133;28;20324;-52
2022/08/13 02:23:31;;;;;;;7.07;4.50;;;22.60;99.90;;;;;;5019882;28;20215;-51
2022/08/13 02:26:18;;;;;;;5.30;4.10;;;22.50;99.90;;;;;;5019673;28;20617;-48
2022/08/13 02:28:52;;;;;;;8.70;5.47;;;22.50;99.90;;;;;;5020433;28;20709;-51
2022/08/13 02:31:19;;;;;;;9.33;4.83;;;22.50;99.90;;;;;;5018685;28;20212;-51
2022/08/13 02:34:06;;;;;;;7.37;4.83;;;22.50;99.90;;;;;;5018811;28;20204;-51
2022/08/13 02:36:40;;;;;;;5.70;4.80;;;22.40;99.90;;;;;;5018456;28;20219;-50
2022/08/13 02:39:13;;;;;;;6.83;5.30;;;22.30;99.90;;;;;;5018368;28;20203;-52
2022/08/13 02:41:43;;;;;;;9.57;5.27;;;22.30;99.90;;;;;;5019199;28;20665;-50
2022/08/13 02:44:20;;;;;;;9.03;5.27;;;22.30;99.90;;;;;;5018735;28;20213;-49
2022/08/13 02:46:50;;;;;;;7.90;5.40;;;22.20;99.90;;;;;;5019865;28;20818;-51
2022/08/13 02:49:21;;;;;;;10.07;5.50;;;22.10;99.90;;;;;;5019909;28;20205;-51
2022/08/13 02:51:55;;;;;;;8.20;5.97;;;22.10;99.90;;;;;;5019034;28;20207;-52
2022/08/13 02:54:47;;;;;;;9.07;5.60;;;22.10;99.90;;;;;;5021699;28;20224;-52
2022/08/13 02:57:24;;;;;;;8.37;6.00;;;22.00;99.90;;;;;;5022248;28;20290;-52
2022/08/13 02:59:53;;;;;;;12.23;7.27;;;22.00;99.90;;;;;;5022526;28;20221;-51
2022/08/13 03:02:37;;;;;;;10.63;7.93;;;22.00;99.90;;;;;;5022381;28;20230;-52
2022/08/13 03:05:10;;;;;;;11.77;8.90;;;22.00;99.90;;;;;;5023239;28;20675;-52
2022/08/13 03:07:44;;;;;;;12.40;8.90;;;21.90;99.90;;;;;;5022833;28;20228;-50
2022/08/13 03:10:22;;;;;;;14.40;10.60;;;21.90;99.90;;;;;;5022479;28;20228;-51
2022/08/13 03:13:26;;;;;;;14.10;10.40;;;21.90;99.90;;;;;;5022353;28;20667;-52
2022/08/13 03:15:55;;;;;;;14.87;11.20;;;21.90;99.90;;;;;;5022591;28;20208;-52
2022/08/13 03:18:30;;;;;;;16.30;10.40;;;21.90;99.90;;;;;;5022277;28;20785;-52
2022/08/13 03:21:19;;;;;;;15.50;10.27;;;21.90;99.90;;;;;;5023060;28;20250;-50
2022/08/13 03:24:15;;;;;;;13.83;10.43;;;21.90;99.90;;;;;;5022883;28;20630;-52
2022/08/13 03:26:55;;;;;;;15.90;11.13;;;21.80;99.90;;;;;;5022141;28;20296;-53
2022/08/13 03:29:24;;;;;;;15.17;11.60;;;21.70;99.90;;;;;;5021756;28;20539;-50
2022/08/13 03:32:13;;;;;;;16.87;12.43;;;21.70;99.90;;;;;;5021299;28;20679;-52
2022/08/13 03:34:41;;;;;;;15.03;11.63;;;21.70;99.90;;;;;;5021865;28;20292;-52
2022/08/13 03:37:10;;;;;;;19.83;12.70;;;21.80;99.90;;;;;;5022720;28;20604;-51
2022/08/13 03:39:40;;;;;;;19.77;13.10;;;21.70;99.90;;;;;;5022167;28;20638;-52
2022/08/13 03:42:11;;;;;;;17.20;11.97;;;21.60;99.90;;;;;;5021900;28;20221;-51
2022/08/13 03:44:56;;;;;;;21.23;14.33;;;21.50;99.90;;;;;;5022086;28;20205;-52
2022/08/13 03:47:24;;;;;;;18.97;13.13;;;21.50;99.90;;;;;;5020527;28;20223;-51
2022/08/13 03:49:59;;;;;;;19.47;13.23;;;21.50;99.90;;;;;;5021391;28;20261;-51
2022/08/13 03:52:28;;;;;;;21.20;10.70;;;21.50;99.90;;;;;;5022169;28;20719;-50
2022/08/13 03:55:08;;;;;;;18.57;11.70;;;21.50;99.90;;;;;;5022256;28;20272;-51
2022/08/13 03:57:40;;;;;;;16.43;10.93;;;21.40;99.90;;;;;;5022231;28;20319;-51
2022/08/13 04:00:29;;;;;;;16.17;10.70;;;21.40;99.90;;;;;;5020701;28;20229;-51
2022/08/13 04:02:57;;;;;;;19.43;11.67;;;21.40;99.90;;;;;;5021533;28;20201;-52
2022/08/13 04:05:25;;;;;;;22.83;10.97;;;21.40;99.90;;;;;;5034722;28;20295;-50
2022/08/13 04:08:12;;;;;;;16.73;11.67;;;21.30;99.90;;;;;;5019189;28;20205;-50
2022/08/13 04:10:42;;;;;;;22.27;11.70;;;21.30;99.90;;;;;;5022341;28;20297;-51
2022/08/13 04:13:19;;;;;;;17.70;11.40;;;21.30;99.90;;;;;;5021639;28;20236;-51
2022/08/13 04:16:07;;;;;;;16.83;10.63;;;21.30;99.90;;;;;;5021047;28;20209;-49
2022/08/13 04:18:36;;;;;;;22.03;11.60;;;21.20;99.90;;;;;;5021467;28;20657;-52
2022/08/13 04:21:06;;;;;;;15.90;10.00;;;21.20;99.90;;;;;;5021648;28;20242;-50
2022/08/13 04:23:34;;;;;;;13.87;10.70;;;21.30;99.90;;;;;;5020674;28;20305;-50
2022/08/13 04:26:04;;;;;;;17.27;9.27;;;21.20;99.90;;;;;;5020936;28;20259;-51
2022/08/13 04:28:31;;;;;;;14.77;8.87;;;21.10;99.90;;;;;;5020484;28;20218;-50
2022/08/13 04:31:00;;;;;;;9.20;5.80;;;21.10;99.90;;;;;;5020707;28;20211;-50
2022/08/13 04:33:31;;;;;;;13.17;5.80;;;21.10;99.90;;;;;;5022315;28;20642;-51
2022/08/13 04:36:18;;;;;;;9.00;6.00;;;21.20;99.90;;;;;;5020136;28;20213;-49
2022/08/13 04:38:46;;;;;;;7.17;5.07;;;21.10;99.90;;;;;;5018779;28;20739;-50
2022/08/13 04:41:13;;;;;;;6.90;4.60;;;21.10;99.90;;;;;;5020014;28;20692;-52
2022/08/13 04:43:41;;;;;;;5.63;4.17;;;21.10;99.90;;;;;;5036292;28;20201;-50
2022/08/13 04:46:08;;;;;;;6.73;4.23;;;21.20;99.90;;;;;;5020397;28;20255;-49
2022/08/13 04:48:35;;;;;;;6.67;3.90;;;21.20;99.90;;;;;;5021001;28;20207;-52
2022/08/13 04:51:05;;;;;;;10.13;3.77;;;21.10;99.90;;;;;;5021074;28;20212;-52
2022/08/13 04:53:36;;;;;;;5.43;4.33;;;21.20;99.90;;;;;;5021360;28;20205;-50
2022/08/13 04:56:16;;;;;;;3.77;3.30;;;21.10;99.90;;;;;;5021027;28;20200;-50
2022/08/13 04:58:45;;;;;;;4.80;3.47;;;21.10;99.90;;;;;;5019585;28;20665;-51
2022/08/13 05:01:12;;;;;;;5.30;3.40;;;20.90;99.90;;;;;;5019963;28;20209;-52
2022/08/13 05:03:59;;;;;;;4.77;3.40;;;21.10;99.90;;;;;;5020033;28;20323;-52
2022/08/13 05:06:46;;;;;;;3.97;3.00;;;21.10;99.90;;;;;;5019901;28;20208;-51
2022/08/13 05:09:21;;;;;;;4.00;3.53;;;21.10;99.90;;;;;;5020697;28;20263;-51
2022/08/13 05:11:56;;;;;;;4.13;2.93;;;21.00;99.90;;;;;;5020812;28;20213;-50
2022/08/13 05:14:32;;;;;;;10.70;3.00;;;21.00;99.90;;;;;;5020704;28;20299;-51
2022/08/13 05:17:03;;;;;;;6.03;3.60;;;21.10;99.90;;;;;;5019154;28;20749;-51
2022/08/13 05:19:30;;;;;;;6.27;3.27;;;21.00;99.90;;;;;;5034833;28;20592;-51
2022/08/13 05:22:06;;;;;;;5.17;3.80;;;21.10;99.90;;;;;;5020085;28;20222;-49
2022/08/13 05:24:52;;;;;;;5.03;3.40;;;21.00;99.90;;;;;;5019886;28;20236;-50
2022/08/13 05:27:39;;;;;;;6.53;3.90;;;21.00;99.90;;;;;;5020077;28;20305;-52
2022/08/13 05:30:08;;;;;;;7.20;3.73;;;21.10;99.90;;;;;;5020397;28;20209;-50
2022/08/13 05:32:57;;;;;;;6.30;4.17;;;21.10;99.90;;;;;;5019071;28;20672;-51
2022/08/13 05:35:26;;;;;;;7.17;5.20;;;21.00;99.90;;;;;;5020381;28;20229;-50
2022/08/13 05:38:14;;;;;;;7.13;4.10;;;21.20;99.90;;;;;;5020472;28;20319;-52
2022/08/13 05:40:52;;;;;;;6.53;4.03;;;21.20;99.90;;;;;;5020019;28;20682;-50
2022/08/13 05:43:23;;;;;;;4.70;4.20;;;21.20;99.90;;;;;;5020410;28;20642;-51
2022/08/13 05:46:00;;;;;;;4.87;3.43;;;21.30;99.90;;;;;;5019588;28;20201;-50
2022/08/13 05:48:38;;;;;;;4.43;3.60;;;21.30;99.90;;;;;;5019750;28;20258;-51
2022/08/13 05:51:09;;;;;;;5.70;3.40;;;21.30;99.90;;;;;;5019593;28;20542;-51
2022/08/13 05:53:37;;;;;;;9.97;3.90;;;21.20;99.90;;;;;;5019796;28;20205;-49
2022/08/13 05:56:08;;;;;;;3.90;3.20;;;21.30;99.90;;;;;;5020028;28;20208;-50
2022/08/13 05:58:44;;;;;;;4.47;3.40;;;21.30;99.90;;;;;;5019056;28;20248;-50
2022/08/13 06:04:02;;;;;;;8.23;3.40;;;21.40;99.90;;;;;;5020419;28;20246;-52
2022/08/13 06:06:50;;;;;;;5.30;3.67;;;21.60;99.90;;;;;;5018788;28;20235;-51
2022/08/13 06:09:19;;;;;;;6.73;3.90;;;21.60;99.90;;;;;;5020133;28;20205;-50
2022/08/13 06:11:50;;;;;;;4.97;4.07;;;21.60;99.90;;;;;;5019843;28;20296;-51
2022/08/13 06:14:38;;;;;;;5.33;4.37;;;21.70;99.90;;;;;;5020765;28;20710;-51
2022/08/13 06:17:06;;;;;;;5.73;4.47;;;21.60;99.90;;;;;;5013685;28;20212;-50
2022/08/13 06:19:43;;;;;;;6.30;4.27;;;21.60;99.90;;;;;;5019811;28;20634;-50
2022/08/13 06:22:19;;;;;;;7.53;4.57;;;21.60;99.90;;;;;;5019289;28;20788;-51
2022/08/13 06:24:47;;;;;;;7.97;5.13;;;21.60;99.90;;;;;;5018936;28;20215;-52
2022/08/13 06:27:21;;;;;;;7.43;4.53;;;21.70;99.90;;;;;;5019621;28;20205;-52
2022/08/13 06:30:09;;;;;;;7.77;4.43;;;21.80;99.90;;;;;;5023168;28;20205;-51
2022/08/13 06:32:37;;;;;;;4.87;4.37;;;21.80;99.90;;;;;;5022382;28;20200;-50
2022/08/13 06:35:24;;;;;;;6.43;4.50;;;22.00;99.90;;;;;;5023420;28;20526;-51
2022/08/13 06:37:56;;;;;;;6.27;4.83;;;22.10;99.90;;;;;;5022360;28;20287;-51
2022/08/13 06:40:24;;;;;;;5.80;4.30;;;22.10;99.90;;;;;;5022753;28;20225;-52
2022/08/13 06:43:05;;;;;;;5.87;4.60;;;22.30;99.90;;;;;;5023209;28;20205;-50
2022/08/13 06:45:33;;;;;;;7.27;4.47;;;22.30;99.90;;;;;;5019971;28;20234;-52
2022/08/13 06:48:02;;;;;;;6.20;4.70;;;22.40;99.90;;;;;;5022467;28;20205;-51
2022/08/13 06:50:34;;;;;;;6.87;4.33;;;22.50;99.90;;;;;;5020454;28;20212;-52
2022/08/13 06:53:10;;;;;;;6.87;5.00;;;22.60;99.90;;;;;;5022949;28;20244;-52
2022/08/13 06:55:57;;;;;;;11.60;4.80;;;22.80;99.90;;;;;;5022921;28;20234;-51
2022/08/13 06:58:46;;;;;;;7.07;4.70;;;23.10;99.90;;;;;;5023023;28;20232;-52
2022/08/13 07:01:22;;;;;;;8.17;4.57;;;23.30;99.90;;;;;;5022634;28;20225;-51
2022/08/13 07:03:52;;;;;;;8.20;4.83;;;23.50;99.90;;;;;;5022114;28;20237;-49
2022/08/13 07:06:27;;;;;;;10.17;5.40;;;23.70;99.90;;;;;;5022858;28;20207;-51
2022/08/13 07:08:59;;;;;;;6.50;4.90;;;23.70;99.90;;;;;;5021890;28;20201;-51
2022/08/13 07:11:28;;;;;;;11.50;4.90;;;23.80;99.90;;;;;;5022331;28;20236;-51
2022/08/13 07:14:05;;;;;;;11.40;4.53;;;24.00;99.90;;;;;;5022512;28;20316;-51
2022/08/13 07:16:40;;;;;;;5.93;4.47;;;24.20;99.90;;;;;;5021694;28;20244;-50
2022/08/13 07:19:11;;;;;;;8.60;4.13;;;24.40;99.90;;;;;;5018507;28;20208;-50
2022/08/13 07:21:40;;;;;;;8.63;4.70;;;24.70;99.90;;;;;;5022016;28;20217;-51
2022/08/13 07:24:10;;;;;;;5.40;4.32;;;24.90;99.90;;;;;;5022942;28;20244;-51
2022/08/13 07:27:07;;;;;;;6.27;3.73;;;24.80;99.90;;;;;;5022225;28;20211;-51
2022/08/13 07:29:37;;;;;;;4.30;3.25;;;25.20;99.90;;;;;;5021818;28;20200;-52
2022/08/13 07:32:19;;;;;;;3.63;3.33;;;25.50;99.90;;;;;;5022457;28;20211;-51
2022/08/13 07:34:59;;;;;;;7.20;2.70;;;25.50;99.90;;;;;;5023111;28;20209;-49
2022/08/13 07:37:27;;;;;;;6.00;2.60;;;25.80;99.90;;;;;;5021313;28;20202;-53
2022/08/13 07:39:55;;;;;;;3.20;2.60;;;25.90;99.90;;;;;;5021724;28;20221;-51
2022/08/13 07:42:27;;;;;;;3.38;2.35;;;25.70;99.90;;;;;;5021635;28;20220;-51
2022/08/13 07:45:00;;;;;;;9.13;2.40;;;25.50;99.90;;;;;;5022570;28;20212;-51
2022/08/13 07:47:50;;;;;;;3.05;2.10;;;25.70;99.90;;;;;;5020635;28;20209;-51
2022/08/13 07:50:38;;;;;;;3.03;2.17;;;25.90;99.90;;;;;;5022445;28;20204;-51
2022/08/13 07:53:10;;;;;;;2.65;2.22;;;25.90;99.90;;;;;;5021454;28;20200;-51
2022/08/13 07:55:43;;;;;;;3.05;2.15;;;25.80;99.90;;;;;;5021136;28;20227;-52
2022/08/13 07:58:35;;;;;;;4.40;2.53;;;26.00;99.90;;;;;;5021444;28;20324;-52
2022/08/13 08:01:06;;;;;;;5.80;2.38;;;26.10;99.90;;;;;;5020925;28;20229;-51
2022/08/13 08:03:40;;;;;;;2.97;2.42;;;26.10;99.90;;;;;;5018773;28;20664;-52
2022/08/13 08:06:18;;;;;;;2.58;2.00;;;26.00;99.90;;;;;;5020936;28;20212;-52
2022/08/13 08:08:55;;;;;;;2.90;2.65;;;26.30;99.90;;;;;;5021912;28;20661;-53
2022/08/13 08:14:18;;;;;;;2.58;1.80;;;26.30;99.90;;;;;;5021608;28;20248;-51
2022/08/13 08:17:01;;;;;;;5.03;2.72;;;26.50;99.90;;;;;;5027352;28;20217;-51
2022/08/13 08:19:50;;;;;;;4.80;2.50;;;26.40;99.90;;;;;;5020206;28;20303;-51
2022/08/13 08:22:42;;;;;;;3.60;2.80;;;26.50;99.90;;;;;;5020536;28;20267;-52
2022/08/13 08:25:18;;;;;;;3.17;2.38;;;26.60;99.90;;;;;;5021206;28;20292;-52
2022/08/13 08:27:47;;;;;;;2.78;2.33;;;26.80;99.90;;;;;;5020366;28;20830;-51
2022/08/13 08:30:33;;;;;;;5.57;2.47;;;26.80;99.90;;;;;;5021676;28;20208;-54
2022/08/13 08:33:00;;;;;;;4.68;2.35;;;27.10;99.90;;;;;;5020421;28;20212;-53
2022/08/13 08:35:29;;;;;;;3.55;3.20;;;27.30;99.90;;;;;;5021446;28;20201;-51
2022/08/13 08:43:57;;;;;;;8.02;2.70;;;27.60;99.90;;;;;;5020614;28;20225;-52
2022/08/13 08:46:24;;;;;;;4.25;2.17;;;27.80;99.90;;;;;;5020582;28;20205;-51
2022/08/13 08:48:54;;;;;;;5.53;2.60;;;27.60;99.90;;;;;;5021720;28;20275;-50
2022/08/13 08:51:27;;;;;;;3.47;2.20;;;27.60;99.90;;;;;;5020078;28;20516;-51
2022/08/13 08:53:57;;;;;;;2.65;2.40;;;27.70;99.90;;;;;;5018645;28;20243;-52
2022/08/13 08:56:46;;;;;;;3.10;2.80;;;28.10;99.90;;;;;;5019192;28;20209;-52
2022/08/13 08:59:32;;;;;;;3.22;2.08;;;28.70;99.90;;;;;;5020630;28;20291;-52
2022/08/13 09:01:59;;;;;;;2.88;2.40;;;28.80;99.90;;;;;;5019523;28;20312;-51
2022/08/13 09:04:29;;;;;;;2.63;2.35;;;28.60;99.90;;;;;;5020357;28;20247;-53
2022/08/13 09:07:17;;;;;;;6.82;2.30;;;29.00;99.90;;;;;;5020234;28;20312;-51
2022/08/13 09:09:54;;;;;;;3.17;2.05;;;29.00;99.90;;;;;;5020919;28;20220;-51
2022/08/13 09:12:25;;;;;;;3.15;2.17;;;29.20;99.90;;;;;;5020109;28;20208;-53
2022/08/13 09:14:54;;;;;;;6.40;2.28;;;29.30;99.90;;;;;;5019697;28;20247;-52
2022/08/13 09:17:21;;;;;;;2.15;1.95;;;29.30;99.90;;;;;;5019808;28;20619;-54
2022/08/13 09:19:48;;;;;;;5.57;2.20;;;29.50;99.90;;;;;;5019671;28;20500;-55
2022/08/13 09:22:23;;;;;;;3.25;2.05;;;29.60;99.90;;;;;;5020101;28;20258;-54
2022/08/13 09:24:56;;;;;;;2.92;2.10;;;30.40;99.90;;;;;;5020503;28;20690;-56
2022/08/13 09:27:28;;;;;;;3.40;1.90;;;30.80;99.90;;;;;;5020033;28;20564;-54
2022/08/13 09:30:16;;;;;;;5.60;2.08;;;31.50;99.90;;;;;;5019674;28;20240;-54
2022/08/13 09:32:53;;;;;;;4.32;1.70;;;31.70;99.90;;;;;;5019879;28;20218;-55
2022/08/13 09:35:24;;;;;;;2.38;1.42;;;31.10;99.90;;;;;;5015704;28;20204;-54
2022/08/13 09:38:00;;;;;;;4.28;1.63;;;31.50;99.90;;;;;;5004058;28;20603;-54
2022/08/13 09:40:31;;;;;;;3.15;1.85;;;31.00;99.90;;;;;;5019783;28;20216;-54
2022/08/13 09:43:22;;;;;;;4.00;2.10;;;31.00;99.90;;;;;;5019940;28;20320;-54
2022/08/13 09:46:10;;;;;;;1.70;1.23;;;31.40;99.90;;;;;;5018969;28;20789;-53
2022/08/13 09:48:44;;;;;;;2.53;1.42;;;31.70;99.90;;;;;;5019618;28;21180;-55
2022/08/13 09:51:13;;;;;;;2.88;1.52;;;31.30;99.90;;;;;;5014376;28;20243;-55
2022/08/13 09:54:02;;;;;;;3.78;1.42;;;31.30;99.90;;;;;;5019174;28;20236;-54
2022/08/13 09:56:37;;;;;;;2.40;1.40;;;31.60;99.90;;;;;;5019884;28;20212;-54
2022/08/13 09:59:11;;;;;;;2.22;1.40;;;31.40;99.90;;;;;;5019590;28;20248;-56
2022/08/13 10:01:44;;;;;;;1.67;1.10;;;31.00;99.90;;;;;;5018895;28;20216;-55
2022/08/13 10:04:23;;;;;;;2.35;1.08;;;30.40;99.90;;;;;;5016736;28;20618;-55
2022/08/13 10:06:51;;;;;;;3.92;1.60;;;30.40;99.90;;;;;;5018033;28;20215;-54
2022/08/13 10:09:28;;;;;;;1.40;1.17;;;30.10;99.90;;;;;;5019738;28;20600;-54
2022/08/13 10:12:05;;;;;;;1.40;1.02;;;30.60;99.90;;;;;;5018818;28;20251;-54
2022/08/13 10:14:49;;;;;;;2.78;1.00;;;30.80;99.90;;;;;;5019099;28;20209;-54
2022/08/13 10:17:27;;;;;;;3.03;1.35;;;30.50;99.90;;;;;;5018727;28;20255;-54
2022/08/13 10:20:17;;;;;;;1.83;1.23;;;30.50;99.90;;;;;;5018685;28;20236;-55
2022/08/13 10:22:46;;;;;;;2.95;1.10;;;30.60;99.90;;;;;;5018457;28;20235;-54
2022/08/13 10:25:14;;;;;;;4.30;1.30;;;30.40;99.90;;;;;;5013665;28;20572;-55
2022/08/13 10:27:47;;;;;;;2.60;1.15;;;30.10;99.90;;;;;;5019074;28;20204;-55
2022/08/13 10:30:24;;;;;;;2.83;1.02;;;30.10;99.90;;;;;;5019550;28;20207;-54
2022/08/13 10:33:12;;;;;;;2.10;1.10;;;29.80;99.90;;;;;;5018556;28;20247;-53
2022/08/13 10:35:40;;;;;;;1.75;1.50;;;29.80;99.90;;;;;;5018549;28;20211;-54
2022/08/13 10:38:26;;;;;;;3.67;1.10;;;30.00;99.90;;;;;;5017070;28;20208;-56
2022/08/13 10:40:58;;;;;;;3.28;1.30;;;30.10;99.90;;;;;;5019226;28;20632;-55
2022/08/13 10:43:26;;;;;;;4.43;1.75;;;30.10;99.90;;;;;;5019267;28;20656;-53
2022/08/13 10:46:15;;;;;;;3.30;1.13;;;30.10;99.90;;;;;;5018354;28;20255;-54
2022/08/13 10:48:55;;;;;;;4.35;1.17;;;30.10;99.90;;;;;;5018370;28;20200;-53
2022/08/13 10:51:27;;;;;;;1.95;1.35;;;30.00;99.90;;;;;;5019167;28;20736;-56
2022/08/13 10:53:58;;;;;;;5.22;1.45;;;30.10;99.90;;;;;;5017982;28;20264;-55
2022/08/13 10:56:31;;;;;;;3.80;1.40;;;30.00;99.90;;;;;;5018641;28;20200;-54
2022/08/13 10:59:01;;;;;;;3.47;1.45;;;30.30;99.90;;;;;;4999582;28;20252;-53
2022/08/13 11:01:29;;;;;;;1.55;1.40;;;30.50;99.90;;;;;;4998606;28;20210;-53
2022/08/13 11:04:00;;;;;;;2.08;1.30;;;30.60;99.90;;;;;;4998729;28;20264;-53
2022/08/13 11:06:36;;;;;;;2.28;1.05;;;30.70;99.90;;;;;;5000518;28;20279;-53
2022/08/13 11:09:06;;;;;;;1.88;1.27;;;30.50;99.90;;;;;;4999359;28;20335;-52
2022/08/13 11:11:57;;;;;;;2.67;1.88;;;30.80;99.90;;;;;;4998483;28;20284;-56
2022/08/13 11:14:30;;;;;;;1.15;1.05;;;31.70;99.90;;;;;;4999437;28;20210;-53
2022/08/13 11:17:04;;;;;;;2.28;1.15;;;31.70;99.90;;;;;;5002376;28;20216;-55
2022/08/13 11:19:45;;;;;;;2.45;1.00;;;31.60;99.90;;;;;;5003503;28;20233;-55
2022/08/13 11:22:20;;;;;;;1.30;1.08;;;32.00;99.90;;;;;;5002571;28;20608;-55
2022/08/13 11:24:54;;;;;;;2.75;1.15;;;32.40;99.90;;;;;;5024220;28;20206;-54
2022/08/13 11:27:21;;;;;;;1.73;1.30;;;32.20;99.90;;;;;;5001559;28;20617;-54
2022/08/13 11:29:58;;;;;;;3.20;1.17;;;32.60;99.90;;;;;;5002538;28;20676;-54
2022/08/13 11:32:25;;;;;;;2.92;1.02;;;32.30;99.90;;;;;;4998412;28;20210;-53
2022/08/13 11:34:54;;;;;;;4.75;1.38;;;33.00;99.90;;;;;;4996810;28;20328;-54
2022/08/13 11:37:21;;;;;;;2.97;1.17;;;33.70;99.90;;;;;;5002723;28;20202;-55
2022/08/13 11:39:49;;;;;;;3.50;1.30;;;33.90;99.90;;;;;;5002245;28;20557;-54
2022/08/13 11:42:35;;;;;;;2.42;1.20;;;34.00;99.90;;;;;;5001505;28;20719;-54
2022/08/13 11:45:04;;;;;;;2.75;1.30;;;34.50;99.90;;;;;;5001950;28;20214;-54
2022/08/13 11:47:31;;;;;;;1.80;1.45;;;33.00;99.90;;;;;;5001882;28;20267;-56
2022/08/13 11:49:58;;;;;;;3.03;1.27;;;32.80;99.90;;;;;;5002344;28;20305;-54
2022/08/13 11:52:25;;;;;;;1.35;1.25;;;34.00;99.90;;;;;;5001251;28;20256;-55
2022/08/13 11:54:55;;;;;;;3.13;1.20;;;35.30;99.90;;;;;;5002519;28;20300;-55
2022/08/13 11:57:22;;;;;;;2.70;1.10;;;35.70;99.90;;;;;;5008008;28;20241;-54
2022/08/13 11:59:49;;;;;;;3.58;1.30;;;34.70;99.90;;;;;;5021503;28;20205;-53
2022/08/13 12:02:24;;;;;;;2.63;0.90;;;33.90;99.90;;;;;;5019446;28;20325;-57
2022/08/13 12:04:58;;;;;;;2.75;0.98;;;33.30;99.90;;;;;;5021701;28;20209;-55
2022/08/13 12:07:31;;;;;;;2.20;1.60;;;33.40;99.90;;;;;;5022200;28;20275;-55
2022/08/13 12:10:09;;;;;;;3.00;1.10;;;34.30;99.90;;;;;;5021020;28;20193;-55
2022/08/13 12:12:56;;;;;;;2.30;0.90;;;35.50;99.90;;;;;;5021320;28;20299;-55
2022/08/13 12:15:23;;;;;;;1.35;1.08;;;33.60;99.90;;;;;;5021368;28;20213;-55
2022/08/13 12:18:15;;;;;;;1.58;1.48;;;33.20;99.90;;;;;;5020005;28;20224;-54
2022/08/13 12:20:43;;;;;;;2.33;0.90;;;34.10;99.90;;;;;;5021169;28;20247;-54
2022/08/13 12:23:10;;;;;;;0.95;0.93;;;33.40;99.90;;;;;;5019050;28;20259;-56
2022/08/13 12:25:47;;;;;;;3.22;0.90;;;34.70;99.90;;;;;;5021086;28;20683;-55
2022/08/13 12:28:31;;;;;;;2.00;1.00;;;35.60;99.90;;;;;;5020858;28;20197;-55
2022/08/13 12:31:03;;;;;;;2.60;1.00;;;35.90;99.90;;;;;;5018321;28;20205;-55
2022/08/13 12:33:33;;;;;;;2.15;1.13;;;35.60;99.90;;;;;;5020436;28;20251;-56
2022/08/13 12:36:08;;;;;;;1.80;0.90;;;35.90;99.90;;;;;;5019798;28;20205;-54
2022/08/13 12:38:41;;;;;;;1.13;1.02;;;35.80;99.90;;;;;;5020997;28;20203;-54
2022/08/13 12:41:24;;;;;;;1.73;1.23;;;34.30;99.90;;;;;;5020587;28;20209;-54
2022/08/13 12:44:12;;;;;;;1.40;1.20;;;34.70;99.90;;;;;;5020576;28;20292;-54
2022/08/13 12:47:00;;;;;;;3.45;1.05;;;35.20;99.90;;;;;;5020040;28;20248;-54
2022/08/13 12:49:29;;;;;;;1.17;1.05;;;36.00;99.90;;;;;;5020420;28;20205;-55
2022/08/13 12:52:16;;;;;;;1.10;0.95;;;36.60;99.90;;;;;;5019633;28;20205;-54
2022/08/13 12:54:48;;;;;;;4.22;1.05;;;36.10;99.90;;;;;;5020894;28;20340;-54
2022/08/13 12:57:37;;;;;;;1.58;1.00;;;36.70;99.90;;;;;;5020733;28;20332;-55
2022/08/13 13:00:26;;;;;;;1.73;1.20;;;35.70;99.90;;;;;;5020102;28;20244;-53
2022/08/13 13:02:59;;;;;;;1.83;1.08;;;34.60;99.90;;;;;;5019524;28;20213;-54
2022/08/13 13:05:28;;;;;;;8.38;1.25;;;35.60;99.90;;;;;;5019239;28;20207;-54
2022/08/13 13:08:32;;;;;;;2.25;1.10;;;35.80;99.90;;;;;;5020418;28;21104;-54
2022/08/13 13:11:11;;;;;;;3.78;1.20;;;36.10;99.90;;;;;;5019357;28;20205;-56
2022/08/13 13:13:44;;;;;;;3.05;1.10;;;36.10;99.90;;;;;;5020414;28;20204;-55
2022/08/13 13:16:21;;;;;;;2.53;1.35;;;34.80;99.90;;;;;;5019086;28;20208;-56
2022/08/13 13:19:03;;;;;;;2.17;1.20;;;33.90;99.90;;;;;;5020339;28;20303;-55
2022/08/13 13:21:38;;;;;;;2.70;1.20;;;34.60;99.90;;;;;;5019622;28;20211;-55
2022/08/13 13:24:07;;;;;;;3.17;1.15;;;34.00;99.90;;;;;;5020255;28;20744;-55
2022/08/13 13:26:50;;;;;;;2.75;1.08;;;34.10;99.90;;;;;;5019218;28;20209;-55
2022/08/13 13:29:37;;;;;;;1.80;1.10;;;34.20;99.90;;;;;;5019663;28;20213;-54
2022/08/13 13:32:12;;;;;;;1.20;1.10;;;34.90;99.90;;;;;;5020037;28;20534;-54
2022/08/13 13:35:00;;;;;;;3.42;1.40;;;36.00;99.90;;;;;;5020467;28;20582;-55
2022/08/13 13:37:42;;;;;;;2.25;1.15;;;36.70;99.90;;;;;;5033336;28;20679;-54
2022/08/13 13:40:29;;;;;;;3.42;1.30;;;36.60;99.90;;;;;;5019619;28;20279;-54
2022/08/13 13:42:57;;;;;;;2.60;1.05;;;36.30;99.90;;;;;;5018795;28;20220;-54
2022/08/13 13:45:44;;;;;;;1.65;1.00;;;36.70;99.90;;;;;;5019325;28;20245;-55
2022/08/13 13:48:34;;;;;;;2.55;1.40;;;35.90;99.90;;;;;;5019317;28;20209;-54